sensor_id;sensor_type;location;lat;lon;timestamp;pressure;altitude;pressure_sealevel;temperature;humidity
63916;BME280;50094;51.356;-0.196;2022-12-20T00:01:08;99815.00;;;23.47;34.95
63916;BME280;50094;51.356;-0.196;2022-12-20T00:03:36;99807.42;;;24.00;34.90
63916;BME280;50094;51.356;-0.196;2022-12-20T00:06:05;99802.88;;;24.04;34.85
63916;BME280;50094;51.356;-0.196;2022-12-20T00:08:32;99799.84;;;23.95;34.86
63916;BME280;50094;51.356;-0.196;2022-12-20T00:11:02;99806.24;;;23.62;34.90
63916;BME280;50094;51.356;-0.196;2022-12-20T00:13:30;99793.02;;;23.76;34.84
63916;BME280;50094;51.356;-0.196;2022-12-20T00:16:04;99798.16;;;23.90;34.89
63916;BME280;50094;51.356;-0.196;2022-12-20T00:18:32;99790.79;;;24.08;34.90
63916;BME280;50094;51.356;-0.196;2022-12-20T00:20:59;99791.29;;;23.62;34.92
63916;BME280;50094;51.356;-0.196;2022-12-20T00:23:26;99783.55;;;23.82;34.94
63916;BME280;50094;51.356;-0.196;2022-12-20T00:25:59;99774.59;;;23.79;34.94
63916;BME280;50094;51.356;-0.196;2022-12-20T00:28:26;99771.16;;;24.02;34.94
63916;BME280;50094;51.356;-0.196;2022-12-20T00:30:53;99780.45;;;23.56;34.95
63916;BME280;50094;51.356;-0.196;2022-12-20T00:33:21;99774.89;;;23.57;34.94
63916;BME280;50094;51.356;-0.196;2022-12-20T00:35:48;99764.13;;;23.57;34.96
63916;BME280;50094;51.356;-0.196;2022-12-20T00:38:15;99764.95;;;23.55;34.95
63916;BME280;50094;51.356;-0.196;2022-12-20T00:40:41;99759.62;;;23.55;34.95
63916;BME280;50094;51.356;-0.196;2022-12-20T00:43:08;99761.04;;;24.00;34.96
63916;BME280;50094;51.356;-0.196;2022-12-20T00:45:35;99758.85;;;23.48;34.99
63916;BME280;50094;51.356;-0.196;2022-12-20T00:48:02;99765.34;;;23.51;34.99
63916;BME280;50094;51.356;-0.196;2022-12-20T00:50:30;99765.84;;;23.49;35.00
63916;BME280;50094;51.356;-0.196;2022-12-20T00:52:57;99759.08;;;23.89;35.03
63916;BME280;50094;51.356;-0.196;2022-12-20T00:55:24;99767.08;;;23.64;35.04
63916;BME280;50094;51.356;-0.196;2022-12-20T00:57:50;99763.72;;;23.42;35.05
63916;BME280;50094;51.356;-0.196;2022-12-20T01:00:19;99772.05;;;23.83;35.09
63916;BME280;50094;51.356;-0.196;2022-12-20T01:02:46;99763.01;;;23.44;35.07
63916;BME280;50094;51.356;-0.196;2022-12-20T01:05:13;99762.80;;;23.41;35.12
63916;BME280;50094;51.356;-0.196;2022-12-20T01:07:41;99767.28;;;23.81;35.13
63916;BME280;50094;51.356;-0.196;2022-12-20T01:10:09;99763.42;;;23.59;35.13
63916;BME280;50094;51.356;-0.196;2022-12-20T01:12:36;99771.29;;;23.37;35.14
63916;BME280;50094;51.356;-0.196;2022-12-20T01:15:05;99763.35;;;23.58;35.13
63916;BME280;50094;51.356;-0.196;2022-12-20T01:17:32;99764.02;;;23.54;35.17
63916;BME280;50094;51.356;-0.196;2022-12-20T01:19:59;99767.30;;;23.34;35.18
63916;BME280;50094;51.356;-0.196;2022-12-20T01:22:27;99760.33;;;23.61;35.17
63916;BME280;50094;51.356;-0.196;2022-12-20T01:24:55;99772.37;;;23.43;35.16
63916;BME280;50094;51.356;-0.196;2022-12-20T01:27:22;99762.24;;;23.63;35.16
63916;BME280;50094;51.356;-0.196;2022-12-20T01:29:50;99767.00;;;23.52;35.21
63916;BME280;50094;51.356;-0.196;2022-12-20T01:32:17;99754.69;;;23.61;35.18
63916;BME280;50094;51.356;-0.196;2022-12-20T01:34:44;99755.60;;;23.37;35.15
63916;BME280;50094;51.356;-0.196;2022-12-20T01:37:11;99755.73;;;23.31;35.19
63916;BME280;50094;51.356;-0.196;2022-12-20T01:39:38;99763.01;;;23.32;35.21
63916;BME280;50094;51.356;-0.196;2022-12-20T01:42:05;99755.35;;;23.29;35.25
63916;BME280;50094;51.356;-0.196;2022-12-20T01:45:12;99747.05;;;23.73;35.24
63916;BME280;50094;51.356;-0.196;2022-12-20T01:47:40;99746.03;;;23.44;35.28
63916;BME280;50094;51.356;-0.196;2022-12-20T01:50:08;99738.53;;;23.76;35.27
63916;BME280;50094;51.356;-0.196;2022-12-20T01:52:38;99741.67;;;23.48;35.27
63916;BME280;50094;51.356;-0.196;2022-12-20T01:55:10;99730.68;;;23.64;35.34
63916;BME280;50094;51.356;-0.196;2022-12-20T01:57:43;99732.69;;;23.42;35.34
63916;BME280;50094;51.356;-0.196;2022-12-20T02:00:12;99730.16;;;23.45;35.35
63916;BME280;50094;51.356;-0.196;2022-12-20T02:02:40;99718.51;;;23.42;35.36
63916;BME280;50094;51.356;-0.196;2022-12-20T02:05:08;99724.35;;;23.21;35.36
63916;BME280;50094;51.356;-0.196;2022-12-20T02:07:37;99723.42;;;23.65;35.36
63916;BME280;50094;51.356;-0.196;2022-12-20T02:10:05;99722.28;;;23.37;35.40
63916;BME280;50094;51.356;-0.196;2022-12-20T02:12:37;99730.29;;;23.38;35.41
63916;BME280;50094;51.356;-0.196;2022-12-20T02:15:19;99724.22;;;23.45;35.36
63916;BME280;50094;51.356;-0.196;2022-12-20T02:17:55;99721.90;;;23.52;35.34
63916;BME280;50094;51.356;-0.196;2022-12-20T02:20:40;99719.68;;;23.36;35.30
63916;BME280;50094;51.356;-0.196;2022-12-20T02:23:58;99712.22;;;23.30;35.31
63916;BME280;50094;51.356;-0.196;2022-12-20T02:26:41;99719.50;;;23.29;35.29
63916;BME280;50094;51.356;-0.196;2022-12-20T02:29:23;99717.23;;;23.32;35.28
63916;BME280;50094;51.356;-0.196;2022-12-20T02:31:56;99716.79;;;23.53;35.27
63916;BME280;50094;51.356;-0.196;2022-12-20T02:34:27;99706.53;;;23.33;35.26
63916;BME280;50094;51.356;-0.196;2022-12-20T02:36:56;99711.60;;;23.55;35.25
63916;BME280;50094;51.356;-0.196;2022-12-20T02:39:27;99709.79;;;23.55;35.26
63916;BME280;50094;51.356;-0.196;2022-12-20T02:41:56;99707.45;;;23.38;35.24
63916;BME280;50094;51.356;-0.196;2022-12-20T02:44:29;99711.65;;;23.64;35.21
63916;BME280;50094;51.356;-0.196;2022-12-20T02:47:00;99713.05;;;23.79;35.21
63916;BME280;50094;51.356;-0.196;2022-12-20T02:49:31;99706.93;;;23.65;35.15
63916;BME280;50094;51.356;-0.196;2022-12-20T02:52:00;99700.67;;;23.62;35.15
63916;BME280;50094;51.356;-0.196;2022-12-20T02:54:29;99702.85;;;23.58;35.19
63916;BME280;50094;51.356;-0.196;2022-12-20T02:57:01;99702.01;;;23.55;35.18
63916;BME280;50094;51.356;-0.196;2022-12-20T02:59:35;99696.97;;;23.47;35.23
63916;BME280;50094;51.356;-0.196;2022-12-20T03:02:06;99700.49;;;23.45;35.25
63916;BME280;50094;51.356;-0.196;2022-12-20T03:04:37;99697.11;;;23.42;35.28
63916;BME280;50094;51.356;-0.196;2022-12-20T03:07:08;99690.26;;;23.50;35.24
63916;BME280;50094;51.356;-0.196;2022-12-20T03:09:36;99682.28;;;23.69;35.25
63916;BME280;50094;51.356;-0.196;2022-12-20T03:12:05;99678.99;;;23.30;35.23
63916;BME280;50094;51.356;-0.196;2022-12-20T03:14:33;99677.63;;;23.66;35.26
63916;BME280;50094;51.356;-0.196;2022-12-20T03:17:01;99672.22;;;23.20;35.28
63916;BME280;50094;51.356;-0.196;2022-12-20T03:19:28;99672.40;;;23.63;35.28
63916;BME280;50094;51.356;-0.196;2022-12-20T03:21:56;99671.58;;;23.40;35.29
63916;BME280;50094;51.356;-0.196;2022-12-20T03:24:24;99671.64;;;23.42;35.31
63916;BME280;50094;51.356;-0.196;2022-12-20T03:26:51;99654.42;;;23.56;35.32
63916;BME280;50094;51.356;-0.196;2022-12-20T03:29:19;99658.47;;;23.49;35.40
63916;BME280;50094;51.356;-0.196;2022-12-20T03:31:46;99654.01;;;23.63;35.32
63916;BME280;50094;51.356;-0.196;2022-12-20T03:34:13;99657.46;;;23.41;35.33
63916;BME280;50094;51.356;-0.196;2022-12-20T03:36:40;99654.04;;;23.75;35.26
63916;BME280;50094;51.356;-0.196;2022-12-20T03:39:06;99653.43;;;23.22;35.26
63916;BME280;50094;51.356;-0.196;2022-12-20T03:41:33;99647.23;;;23.49;35.20
63916;BME280;50094;51.356;-0.196;2022-12-20T03:44:01;99641.58;;;23.43;35.22
63916;BME280;50094;51.356;-0.196;2022-12-20T03:46:28;99639.73;;;23.44;35.21
63916;BME280;50094;51.356;-0.196;2022-12-20T03:48:55;99625.04;;;23.63;35.23
63916;BME280;50094;51.356;-0.196;2022-12-20T03:51:22;99630.31;;;23.57;35.24
63916;BME280;50094;51.356;-0.196;2022-12-20T03:53:49;99627.02;;;23.20;35.21
63916;BME280;50094;51.356;-0.196;2022-12-20T03:56:15;99642.19;;;23.62;35.21
63916;BME280;50094;51.356;-0.196;2022-12-20T03:58:42;99637.98;;;23.39;35.22
63916;BME280;50094;51.356;-0.196;2022-12-20T04:01:19;99623.58;;;23.60;35.22
63916;BME280;50094;51.356;-0.196;2022-12-20T04:03:47;99633.10;;;23.56;35.21
63916;BME280;50094;51.356;-0.196;2022-12-20T04:06:14;99634.97;;;23.37;35.18
63916;BME280;50094;51.356;-0.196;2022-12-20T04:08:41;99629.30;;;23.30;35.23
63916;BME280;50094;51.356;-0.196;2022-12-20T04:11:09;99617.52;;;23.49;35.26
63916;BME280;50094;51.356;-0.196;2022-12-20T04:13:37;99620.52;;;23.50;35.25
63916;BME280;50094;51.356;-0.196;2022-12-20T04:16:04;99622.50;;;23.10;35.25
63916;BME280;50094;51.356;-0.196;2022-12-20T04:18:31;99626.07;;;23.53;35.24
63916;BME280;50094;51.356;-0.196;2022-12-20T04:20:59;99623.27;;;23.56;35.22
63916;BME280;50094;51.356;-0.196;2022-12-20T04:23:26;99625.94;;;23.59;35.21
63916;BME280;50094;51.356;-0.196;2022-12-20T04:25:53;99619.02;;;23.52;35.22
63916;BME280;50094;51.356;-0.196;2022-12-20T04:28:20;99622.67;;;23.29;35.23
63916;BME280;50094;51.356;-0.196;2022-12-20T04:30:47;99624.44;;;23.55;35.24
63916;BME280;50094;51.356;-0.196;2022-12-20T04:33:13;99617.26;;;23.16;35.18
63916;BME280;50094;51.356;-0.196;2022-12-20T04:35:40;99616.10;;;23.35;35.20
63916;BME280;50094;51.356;-0.196;2022-12-20T04:38:07;99622.60;;;23.49;35.24
63916;BME280;50094;51.356;-0.196;2022-12-20T04:40:34;99623.67;;;23.50;35.23
63916;BME280;50094;51.356;-0.196;2022-12-20T04:43:01;99615.95;;;23.52;35.21
63916;BME280;50094;51.356;-0.196;2022-12-20T04:45:28;99618.34;;;23.50;35.22
63916;BME280;50094;51.356;-0.196;2022-12-20T04:47:55;99611.24;;;23.29;35.21
63916;BME280;50094;51.356;-0.196;2022-12-20T04:50:22;99614.93;;;23.13;35.17
63916;BME280;50094;51.356;-0.196;2022-12-20T04:52:48;99604.51;;;23.55;35.17
63916;BME280;50094;51.356;-0.196;2022-12-20T04:55:16;99604.26;;;23.51;35.22
63916;BME280;50094;51.356;-0.196;2022-12-20T04:57:43;99601.97;;;23.21;35.23
63916;BME280;50094;51.356;-0.196;2022-12-20T05:00:12;99602.99;;;23.21;35.27
63916;BME280;50094;51.356;-0.196;2022-12-20T05:02:39;99601.44;;;23.43;35.28
63916;BME280;50094;51.356;-0.196;2022-12-20T05:05:07;99588.77;;;23.42;35.30
63916;BME280;50094;51.356;-0.196;2022-12-20T05:07:34;99600.45;;;23.41;35.31
63916;BME280;50094;51.356;-0.196;2022-12-20T05:10:01;99594.76;;;23.42;35.30
63916;BME280;50094;51.356;-0.196;2022-12-20T05:12:28;99598.53;;;23.28;35.27
63916;BME280;50094;51.356;-0.196;2022-12-20T05:14:55;99595.30;;;23.48;35.29
63916;BME280;50094;51.356;-0.196;2022-12-20T05:17:21;99600.06;;;23.25;35.28
63916;BME280;50094;51.356;-0.196;2022-12-20T05:19:48;99597.64;;;23.42;35.30
63916;BME280;50094;51.356;-0.196;2022-12-20T05:22:15;99606.23;;;23.35;35.34
63916;BME280;50094;51.356;-0.196;2022-12-20T05:24:42;99600.14;;;23.41;35.32
63916;BME280;50094;51.356;-0.196;2022-12-20T05:27:09;99583.45;;;23.39;35.36
63916;BME280;50094;51.356;-0.196;2022-12-20T05:29:36;99584.95;;;23.38;35.34
63916;BME280;50094;51.356;-0.196;2022-12-20T05:32:03;99584.35;;;23.27;35.44
63916;BME280;50094;51.356;-0.196;2022-12-20T05:34:31;99580.53;;;23.26;35.47
63916;BME280;50094;51.356;-0.196;2022-12-20T05:36:57;99599.17;;;23.23;35.51
63916;BME280;50094;51.356;-0.196;2022-12-20T05:39:24;99606.93;;;23.30;35.47
63916;BME280;50094;51.356;-0.196;2022-12-20T05:41:51;99602.71;;;23.37;35.46
63916;BME280;50094;51.356;-0.196;2022-12-20T05:44:18;99602.81;;;23.38;35.47
63916;BME280;50094;51.356;-0.196;2022-12-20T05:46:45;99602.12;;;23.42;35.45
63916;BME280;50094;51.356;-0.196;2022-12-20T05:49:12;99610.43;;;22.99;35.45
63916;BME280;50094;51.356;-0.196;2022-12-20T05:51:40;99605.95;;;23.18;35.48
63916;BME280;50094;51.356;-0.196;2022-12-20T05:54:07;99608.11;;;23.05;35.46
63916;BME280;50094;51.356;-0.196;2022-12-20T05:56:34;99613.65;;;23.53;35.47
63916;BME280;50094;51.356;-0.196;2022-12-20T05:59:01;99615.30;;;23.55;35.44
63916;BME280;50094;51.356;-0.196;2022-12-20T06:01:28;99613.94;;;23.39;35.41
63916;BME280;50094;51.356;-0.196;2022-12-20T06:03:55;99625.05;;;23.60;35.42
63916;BME280;50094;51.356;-0.196;2022-12-20T06:06:22;99636.33;;;23.39;35.45
63916;BME280;50094;51.356;-0.196;2022-12-20T06:08:49;99639.25;;;23.36;35.48
63916;BME280;50094;51.356;-0.196;2022-12-20T06:11:16;99642.86;;;23.64;35.44
63916;BME280;50094;51.356;-0.196;2022-12-20T06:13:42;99639.56;;;23.26;35.41
63916;BME280;50094;51.356;-0.196;2022-12-20T06:16:09;99649.35;;;23.24;35.47
63916;BME280;50094;51.356;-0.196;2022-12-20T06:18:36;99650.75;;;23.46;35.49
63916;BME280;50094;51.356;-0.196;2022-12-20T06:21:03;99657.61;;;23.32;35.43
63916;BME280;50094;51.356;-0.196;2022-12-20T06:23:31;99664.75;;;23.74;35.46
63916;BME280;50094;51.356;-0.196;2022-12-20T06:25:58;99670.17;;;23.37;35.45
63916;BME280;50094;51.356;-0.196;2022-12-20T06:28:25;99673.54;;;23.45;35.39
63916;BME280;50094;51.356;-0.196;2022-12-20T06:30:52;99672.86;;;23.46;35.37
63916;BME280;50094;51.356;-0.196;2022-12-20T06:33:19;99676.63;;;23.45;35.38
63916;BME280;50094;51.356;-0.196;2022-12-20T06:35:49;99674.69;;;23.52;35.35
63916;BME280;50094;51.356;-0.196;2022-12-20T06:38:17;99681.21;;;23.57;35.35
63916;BME280;50094;51.356;-0.196;2022-12-20T06:40:44;99676.71;;;23.59;35.29
63916;BME280;50094;51.356;-0.196;2022-12-20T06:43:11;99680.47;;;23.56;35.27
63916;BME280;50094;51.356;-0.196;2022-12-20T06:45:38;99684.17;;;23.52;35.30
63916;BME280;50094;51.356;-0.196;2022-12-20T06:48:05;99689.18;;;23.94;35.29
63916;BME280;50094;51.356;-0.196;2022-12-20T06:50:32;99712.47;;;23.45;35.33
63916;BME280;50094;51.356;-0.196;2022-12-20T06:52:59;99720.77;;;23.20;35.65
63916;BME280;50094;51.356;-0.196;2022-12-20T06:55:26;99739.68;;;23.52;35.60
63916;BME280;50094;51.356;-0.196;2022-12-20T06:57:53;99745.31;;;23.81;35.64
63916;BME280;50094;51.356;-0.196;2022-12-20T07:00:21;99756.29;;;23.38;35.64
63916;BME280;50094;51.356;-0.196;2022-12-20T07:02:49;99759.14;;;23.36;35.67
63916;BME280;50094;51.356;-0.196;2022-12-20T07:05:16;99771.57;;;23.31;35.70
63916;BME280;50094;51.356;-0.196;2022-12-20T07:07:43;99777.47;;;23.78;35.67
63916;BME280;50094;51.356;-0.196;2022-12-20T07:10:10;99781.09;;;23.31;35.67
63916;BME280;50094;51.356;-0.196;2022-12-20T07:12:37;99783.59;;;23.33;35.62
63916;BME280;50094;51.356;-0.196;2022-12-20T07:15:05;99787.70;;;23.36;35.62
63916;BME280;50094;51.356;-0.196;2022-12-20T07:17:32;99791.10;;;23.70;35.51
63916;BME280;50094;51.356;-0.196;2022-12-20T07:20:00;99794.30;;;23.91;35.51
63916;BME280;50094;51.356;-0.196;2022-12-20T07:22:27;99803.26;;;23.45;35.49
63916;BME280;50094;51.356;-0.196;2022-12-20T07:24:54;99807.50;;;23.41;35.49
63916;BME280;50094;51.356;-0.196;2022-12-20T07:27:21;99815.61;;;23.40;35.52
63916;BME280;50094;51.356;-0.196;2022-12-20T07:29:48;99814.89;;;23.59;35.46
63916;BME280;50094;51.356;-0.196;2022-12-20T07:32:14;99813.87;;;23.54;35.45
63916;BME280;50094;51.356;-0.196;2022-12-20T07:34:41;99823.66;;;23.60;35.40
63916;BME280;50094;51.356;-0.196;2022-12-20T07:37:09;99829.56;;;23.43;35.39
63916;BME280;50094;51.356;-0.196;2022-12-20T07:39:36;99836.88;;;23.48;35.30
63916;BME280;50094;51.356;-0.196;2022-12-20T07:42:03;99839.01;;;23.46;35.27
63916;BME280;50094;51.356;-0.196;2022-12-20T07:44:30;99843.33;;;23.53;35.22
63916;BME280;50094;51.356;-0.196;2022-12-20T07:46:57;99849.02;;;23.61;35.13
63916;BME280;50094;51.356;-0.196;2022-12-20T07:49:24;99847.12;;;24.14;35.03
63916;BME280;50094;51.356;-0.196;2022-12-20T07:51:53;99851.25;;;23.79;34.91
63916;BME280;50094;51.356;-0.196;2022-12-20T07:54:25;99847.70;;;23.83;34.79
63916;BME280;50094;51.356;-0.196;2022-12-20T07:56:56;99848.90;;;23.88;34.68
63916;BME280;50094;51.356;-0.196;2022-12-20T07:59:30;99856.09;;;23.85;34.60
63916;BME280;50094;51.356;-0.196;2022-12-20T08:02:01;99861.95;;;24.31;34.51
63916;BME280;50094;51.356;-0.196;2022-12-20T08:04:29;99869.81;;;23.86;34.45
63916;BME280;50094;51.356;-0.196;2022-12-20T08:06:58;99877.47;;;23.90;34.35
63916;BME280;50094;51.356;-0.196;2022-12-20T08:09:28;99883.66;;;23.93;34.28
63916;BME280;50094;51.356;-0.196;2022-12-20T08:11:57;99892.35;;;23.91;34.23
63916;BME280;50094;51.356;-0.196;2022-12-20T08:14:24;99897.16;;;23.83;34.20
63916;BME280;50094;51.356;-0.196;2022-12-20T08:16:51;99906.19;;;23.77;34.27
63916;BME280;50094;51.356;-0.196;2022-12-20T08:19:18;99907.49;;;23.89;34.31
63916;BME280;50094;51.356;-0.196;2022-12-20T08:21:46;99916.47;;;23.81;34.39
63916;BME280;50094;51.356;-0.196;2022-12-20T08:24:13;99922.19;;;23.51;34.48
63916;BME280;50094;51.356;-0.196;2022-12-20T08:26:40;99927.27;;;23.92;34.51
63916;BME280;50094;51.356;-0.196;2022-12-20T08:29:08;99934.63;;;23.41;34.59
63916;BME280;50094;51.356;-0.196;2022-12-20T08:31:36;99939.69;;;23.42;34.61
63916;BME280;50094;51.356;-0.196;2022-12-20T08:34:04;99944.89;;;23.63;34.62
63916;BME280;50094;51.356;-0.196;2022-12-20T08:36:31;99949.92;;;23.33;34.74
63916;BME280;50094;51.356;-0.196;2022-12-20T08:39:01;99955.94;;;23.37;34.74
63916;BME280;50094;51.356;-0.196;2022-12-20T08:41:29;99954.96;;;23.38;34.71
63916;BME280;50094;51.356;-0.196;2022-12-20T08:43:56;99953.29;;;23.41;34.68
63916;BME280;50094;51.356;-0.196;2022-12-20T08:46:23;99954.44;;;23.62;34.65
63916;BME280;50094;51.356;-0.196;2022-12-20T08:48:50;99957.57;;;23.58;34.62
63916;BME280;50094;51.356;-0.196;2022-12-20T08:51:17;99963.65;;;23.55;34.62
63916;BME280;50094;51.356;-0.196;2022-12-20T08:53:44;99964.61;;;23.50;34.63
63916;BME280;50094;51.356;-0.196;2022-12-20T08:56:13;99969.72;;;23.81;34.58
63916;BME280;50094;51.356;-0.196;2022-12-20T08:58:42;99974.97;;;23.79;34.55
63916;BME280;50094;51.356;-0.196;2022-12-20T09:01:11;99979.62;;;23.68;34.48
63916;BME280;50094;51.356;-0.196;2022-12-20T09:03:38;99988.51;;;23.45;34.42
63916;BME280;50094;51.356;-0.196;2022-12-20T09:06:08;99994.90;;;23.41;34.38
63916;BME280;50094;51.356;-0.196;2022-12-20T09:08:36;100000.19;;;23.85;34.37
63916;BME280;50094;51.356;-0.196;2022-12-20T09:11:05;100002.89;;;23.51;34.28
63916;BME280;50094;51.356;-0.196;2022-12-20T09:13:33;100007.86;;;23.44;34.25
63916;BME280;50094;51.356;-0.196;2022-12-20T09:16:00;100006.95;;;23.41;34.24
63916;BME280;50094;51.356;-0.196;2022-12-20T09:18:28;100008.23;;;23.26;34.27
63916;BME280;50094;51.356;-0.196;2022-12-20T09:20:55;100007.02;;;23.66;34.30
63916;BME280;50094;51.356;-0.196;2022-12-20T09:23:25;100014.60;;;23.66;34.32
63916;BME280;50094;51.356;-0.196;2022-12-20T09:25:52;100014.53;;;23.41;34.31
63916;BME280;50094;51.356;-0.196;2022-12-20T09:28:20;100019.00;;;23.92;34.29
63916;BME280;50094;51.356;-0.196;2022-12-20T09:30:47;100018.96;;;23.70;34.25
63916;BME280;50094;51.356;-0.196;2022-12-20T09:33:14;100017.02;;;23.70;34.20
63916;BME280;50094;51.356;-0.196;2022-12-20T09:35:44;100013.81;;;23.72;34.17
63916;BME280;50094;51.356;-0.196;2022-12-20T09:38:11;100018.40;;;23.62;34.16
63916;BME280;50094;51.356;-0.196;2022-12-20T09:40:44;100026.88;;;23.58;34.17
63916;BME280;50094;51.356;-0.196;2022-12-20T09:43:13;100030.64;;;23.18;34.15
63916;BME280;50094;51.356;-0.196;2022-12-20T09:45:42;100031.01;;;23.66;34.13
63916;BME280;50094;51.356;-0.196;2022-12-20T09:48:16;100038.48;;;23.16;34.13
63916;BME280;50094;51.356;-0.196;2022-12-20T09:50:49;100040.94;;;23.24;34.09
63916;BME280;50094;51.356;-0.196;2022-12-20T09:53:28;100047.58;;;23.44;34.10
63916;BME280;50094;51.356;-0.196;2022-12-20T09:56:02;100052.09;;;23.66;34.06
63916;BME280;50094;51.356;-0.196;2022-12-20T09:58:43;100054.09;;;23.39;34.03
63916;BME280;50094;51.356;-0.196;2022-12-20T10:01:18;100060.87;;;23.59;34.02
63916;BME280;50094;51.356;-0.196;2022-12-20T10:03:46;100063.77;;;23.64;33.98
63916;BME280;50094;51.356;-0.196;2022-12-20T10:06:20;100064.83;;;23.24;33.95
63916;BME280;50094;51.356;-0.196;2022-12-20T10:08:53;100069.80;;;23.46;33.91
63916;BME280;50094;51.356;-0.196;2022-12-20T10:11:39;100073.08;;;23.60;33.82
63916;BME280;50094;51.356;-0.196;2022-12-20T10:14:19;100069.19;;;23.46;33.82
63916;BME280;50094;51.356;-0.196;2022-12-20T10:16:55;100067.89;;;23.38;33.84
63916;BME280;50094;51.356;-0.196;2022-12-20T10:19:36;100064.89;;;23.43;33.80
63916;BME280;50094;51.356;-0.196;2022-12-20T10:22:12;100062.08;;;23.17;33.82
63916;BME280;50094;51.356;-0.196;2022-12-20T10:24:44;100059.24;;;23.39;33.81
63916;BME280;50094;51.356;-0.196;2022-12-20T10:27:18;100065.61;;;23.11;33.80
63916;BME280;50094;51.356;-0.196;2022-12-20T10:29:46;100069.92;;;23.54;33.81
63916;BME280;50094;51.356;-0.196;2022-12-20T10:32:16;100070.63;;;23.34;33.79
63916;BME280;50094;51.356;-0.196;2022-12-20T10:34:51;100064.12;;;23.53;33.80
63916;BME280;50094;51.356;-0.196;2022-12-20T10:37:20;100069.56;;;23.49;33.81
63916;BME280;50094;51.356;-0.196;2022-12-20T10:39:49;100068.28;;;23.27;33.81
63916;BME280;50094;51.356;-0.196;2022-12-20T10:42:24;100064.31;;;23.29;33.80
63916;BME280;50094;51.356;-0.196;2022-12-20T10:44:53;100065.44;;;23.49;33.79
63916;BME280;50094;51.356;-0.196;2022-12-20T10:47:33;100064.52;;;23.58;33.74
63916;BME280;50094;51.356;-0.196;2022-12-20T10:50:09;100069.05;;;23.12;33.71
63916;BME280;50094;51.356;-0.196;2022-12-20T10:52:39;100065.89;;;23.52;33.70
63916;BME280;50094;51.356;-0.196;2022-12-20T10:55:32;100066.94;;;23.58;33.68
63916;BME280;50094;51.356;-0.196;2022-12-20T10:58:02;100064.29;;;23.30;33.67
63916;BME280;50094;51.356;-0.196;2022-12-20T11:00:30;100057.39;;;23.09;33.65
63916;BME280;50094;51.356;-0.196;2022-12-20T11:03:06;100050.54;;;23.57;33.62
63916;BME280;50094;51.356;-0.196;2022-12-20T11:05:36;100045.54;;;23.30;33.64
63916;BME280;50094;51.356;-0.196;2022-12-20T11:08:12;100045.65;;;23.29;33.64
63916;BME280;50094;51.356;-0.196;2022-12-20T11:10:39;100051.24;;;23.26;33.65
63916;BME280;50094;51.356;-0.196;2022-12-20T11:13:19;100059.59;;;23.06;33.64
63916;BME280;50094;51.356;-0.196;2022-12-20T11:15:48;100066.15;;;23.47;33.61
63916;BME280;50094;51.356;-0.196;2022-12-20T11:18:22;100064.49;;;23.46;33.60
63916;BME280;50094;51.356;-0.196;2022-12-20T11:20:59;100066.92;;;23.51;33.57
63916;BME280;50094;51.356;-0.196;2022-12-20T11:23:31;100072.53;;;23.48;33.54
63916;BME280;50094;51.356;-0.196;2022-12-20T11:26:22;100082.96;;;23.16;33.57
63916;BME280;50094;51.356;-0.196;2022-12-20T11:29:05;100083.39;;;23.45;33.55
63916;BME280;50094;51.356;-0.196;2022-12-20T11:31:47;100085.46;;;23.43;33.54
63916;BME280;50094;51.356;-0.196;2022-12-20T11:34:23;100081.27;;;23.20;33.53
63916;BME280;50094;51.356;-0.196;2022-12-20T11:37:03;100085.82;;;23.42;33.53
63916;BME280;50094;51.356;-0.196;2022-12-20T11:39:39;100085.15;;;23.22;33.52
63916;BME280;50094;51.356;-0.196;2022-12-20T11:42:22;100089.32;;;23.43;33.50
63916;BME280;50094;51.356;-0.196;2022-12-20T11:45:01;100085.89;;;23.38;33.50
63916;BME280;50094;51.356;-0.196;2022-12-20T11:47:44;100090.15;;;23.38;33.50
63916;BME280;50094;51.356;-0.196;2022-12-20T11:50:31;100083.77;;;23.39;33.49
63916;BME280;50094;51.356;-0.196;2022-12-20T11:53:06;100082.03;;;23.16;33.48
63916;BME280;50094;51.356;-0.196;2022-12-20T11:55:36;100076.38;;;23.45;33.46
63916;BME280;50094;51.356;-0.196;2022-12-20T11:58:12;100071.20;;;23.21;33.45
63916;BME280;50094;51.356;-0.196;2022-12-20T12:00:46;100069.09;;;23.43;33.43
63916;BME280;50094;51.356;-0.196;2022-12-20T12:03:20;100065.42;;;23.46;33.40
63916;BME280;50094;51.356;-0.196;2022-12-20T12:05:52;100064.11;;;23.53;33.35
63916;BME280;50094;51.356;-0.196;2022-12-20T12:08:26;100062.98;;;23.31;33.32
63916;BME280;50094;51.356;-0.196;2022-12-20T12:10:58;100062.75;;;23.24;33.32
63916;BME280;50094;51.356;-0.196;2022-12-20T12:13:30;100058.13;;;23.51;33.30
63916;BME280;50094;51.356;-0.196;2022-12-20T12:16:04;100057.63;;;23.49;33.28
63916;BME280;50094;51.356;-0.196;2022-12-20T12:18:34;100054.65;;;23.48;33.26
63916;BME280;50094;51.356;-0.196;2022-12-20T12:21:06;100049.24;;;23.02;33.25
63916;BME280;50094;51.356;-0.196;2022-12-20T12:23:41;100046.54;;;23.01;33.25
63916;BME280;50094;51.356;-0.196;2022-12-20T12:26:17;100048.38;;;23.24;33.23
63916;BME280;50094;51.356;-0.196;2022-12-20T12:28:49;100053.20;;;23.43;33.23
63916;BME280;50094;51.356;-0.196;2022-12-20T12:31:24;100054.27;;;23.07;33.20
63916;BME280;50094;51.356;-0.196;2022-12-20T12:34:06;100050.75;;;23.37;33.13
63916;BME280;50094;51.356;-0.196;2022-12-20T12:36:46;100054.77;;;23.55;33.12
63916;BME280;50094;51.356;-0.196;2022-12-20T12:39:41;100051.64;;;23.55;33.09
63916;BME280;50094;51.356;-0.196;2022-12-20T12:42:26;100048.47;;;23.04;33.07
63916;BME280;50094;51.356;-0.196;2022-12-20T12:45:00;100049.74;;;23.38;33.03
63916;BME280;50094;51.356;-0.196;2022-12-20T12:47:33;100049.50;;;23.25;33.09
63916;BME280;50094;51.356;-0.196;2022-12-20T12:50:05;100047.35;;;23.13;33.02
63916;BME280;50094;51.356;-0.196;2022-12-20T12:52:42;100044.90;;;23.22;32.95
63916;BME280;50094;51.356;-0.196;2022-12-20T12:55:44;100041.28;;;23.47;32.89
63916;BME280;50094;51.356;-0.196;2022-12-20T12:59:09;100041.16;;;23.44;32.86
63916;BME280;50094;51.356;-0.196;2022-12-20T13:01:48;100045.13;;;23.63;32.90
63916;BME280;50094;51.356;-0.196;2022-12-20T13:04:26;100052.96;;;23.60;32.81